Time;durP1;ratioP1;P1;durP2;ratioP2;P2;SDS_P1;SDS_P2;PMS_P1;PMS_P2;Temp;Humidity;BMP_temperature;BMP_pressure;BME280_temperature;BME280_humidity;BME280_pressure;Samples;Min_cycle;Max_cycle;Signal;HPM_P1;HPM_P2
2022/08/15 00:00:33;;;;;;;8.73;6.20;;;;;;;;;;4943023;28;20049;-85
2022/08/15 00:02:59;;;;;;;8.55;6.13;;;;;;;;;;4975256;28;20034;-85
2022/08/15 00:05:24;;;;;;;9.05;6.43;;;;;;;;;;4944394;28;20092;-85
2022/08/15 00:07:54;;;;;;;10.20;6.18;;;;;;;;;;4976051;28;20038;-85
2022/08/15 00:10:21;;;;;;;9.60;5.70;;;;;;;;;;4978489;28;20556;-85
2022/08/15 00:12:48;;;;;;;;;;;;;;;;;;4946620;28;20034;-85
2022/08/15 00:15:15;;;;;;;7.73;6.37;;;;;;;;;;4971564;28;19921;-85
2022/08/15 00:17:42;;;;;;;8.27;6.30;;;;;;;;;;4961688;28;20564;-85
2022/08/15 00:20:09;;;;;;;9.15;6.30;;;;;;;;;;4969366;28;20092;-85
2022/08/15 00:22:35;;;;;;;;;;;;;;;;;;4972357;28;20038;-85
2022/08/15 00:25:01;;;;;;;10.85;6.38;;;;;;;;;;4970695;28;20404;-85
2022/08/15 00:27:26;;;;;;;9.30;6.63;;;;;;;;;;4973674;28;20490;-85
2022/08/15 00:29:53;;;;;;;8.13;6.28;;;;;;;;;;4958563;28;20096;-84
2022/08/15 00:32:23;;;;;;;8.65;6.30;;;;;;;;;;4960020;28;20045;-85
2022/08/15 00:34:49;;;;;;;9.30;6.85;;;;;;;;;;4961496;28;20050;-84
2022/08/15 00:37:17;;;;;;;8.68;6.68;;;;;;;;;;4970225;28;20039;-84
2022/08/15 00:39:44;;;;;;;9.75;6.50;;;;;;;;;;4958709;28;20133;-85
2022/08/15 00:42:09;;;;;;;8.05;6.40;;;;;;;;;;4943060;28;20030;-84
2022/08/15 00:44:41;;;;;;;11.23;6.97;;;;;;;;;;4973939;28;20038;-85
2022/08/15 00:47:13;;;;;;;9.68;6.82;;;;;;;;;;4951908;28;20031;-85
2022/08/15 00:49:39;;;;;;;8.77;6.90;;;;;;;;;;4941935;28;20038;-85
2022/08/15 00:52:13;;;;;;;8.95;6.90;;;;;;;;;;4972496;28;20035;-85
2022/08/15 00:54:44;;;;;;;10.82;7.30;;;;;;;;;;4962625;28;20038;-85
2022/08/15 00:57:26;;;;;;;12.35;7.28;;;;;;;;;;4942591;28;20417;-84
2022/08/15 00:59:54;;;;;;;9.68;7.25;;;;;;;;;;4960460;28;20043;-85
2022/08/15 01:02:23;;;;;;;8.85;7.00;;;;;;;;;;4943373;28;20038;-85
2022/08/15 01:04:50;;;;;;;11.40;7.30;;;;;;;;;;4954359;28;20049;-85
2022/08/15 01:07:15;;;;;;;10.40;7.47;;;;;;;;;;4959331;28;20707;-85
2022/08/15 01:09:42;;;;;;;10.65;7.00;;;;;;;;;;4948651;28;20049;-85
2022/08/15 01:12:13;;;;;;;11.52;7.53;;;;;;;;;;4957751;28;20089;-86
2022/08/15 01:14:41;;;;;;;9.13;6.88;;;;;;;;;;4943845;28;20565;-85
2022/08/15 01:17:08;;;;;;;9.35;6.97;;;;;;;;;;4944792;28;20041;-85
2022/08/15 01:19:37;;;;;;;11.55;7.70;;;;;;;;;;4941320;28;20042;-85
2022/08/15 01:22:24;;;;;;;9.90;7.68;;;;;;;;;;4971609;28;20560;-85
2022/08/15 01:24:57;;;;;;;10.02;7.47;;;;;;;;;;4941959;28;20047;-87
2022/08/15 01:27:27;;;;;;;11.43;7.45;;;;;;;;;;4974602;28;20054;-87
2022/08/15 01:29:53;;;;;;;10.98;7.57;;;;;;;;;;4963645;28;20509;-85
2022/08/15 01:32:19;;;;;;;10.55;7.50;;;;;;;;;;4973261;28;20055;-85
2022/08/15 01:34:44;;;;;;;9.43;7.55;;;;;;;;;;4943909;28;20378;-85
2022/08/15 01:37:10;;;;;;;9.85;7.95;;;;;;;;;;4952608;28;20034;-85
2022/08/15 01:39:40;;;;;;;10.13;7.53;;;;;;;;;;4944823;28;20038;-84
2022/08/15 01:42:09;;;;;;;10.55;8.07;;;;;;;;;;4962310;28;20092;-84
2022/08/15 01:44:41;;;;;;;10.43;8.13;;;;;;;;;;4963515;28;20034;-85
2022/08/15 01:47:21;;;;;;;11.48;8.18;;;;;;;;;;4961693;28;20125;-84
2022/08/15 01:49:58;;;;;;;11.25;8.48;;;;;;;;;;4952120;28;20515;-85
2022/08/15 01:52:24;;;;;;;;;;;;;;;;;;4978424;28;20160;-85
2022/08/15 01:54:53;;;;;;;9.57;7.50;;;;;;;;;;4963648;28;20027;-85
2022/08/15 01:57:18;;;;;;;10.27;8.07;;;;;;;;;;4980421;28;20173;-85
2022/08/15 01:59:54;;;;;;;10.48;8.20;;;;;;;;;;4967365;28;20134;-86
2022/08/15 02:02:19;;;;;;;9.93;7.72;;;;;;;;;;4964577;28;20034;-85
2022/08/15 02:04:44;;;;;;;10.55;8.15;;;;;;;;;;4946126;28;20050;-85
2022/08/15 02:07:17;;;;;;;12.52;8.20;;;;;;;;;;4962484;28;20497;-86
2022/08/15 02:09:42;;;;;;;10.10;8.02;;;;;;;;;;4961597;28;20510;-86
2022/08/15 02:12:08;;;;;;;11.85;7.88;;;;;;;;;;4946399;28;20059;-85
2022/08/15 02:14:35;;;;;;;10.40;7.97;;;;;;;;;;4958504;28;20037;-85
2022/08/15 02:17:03;;;;;;;11.20;7.93;;;;;;;;;;4948139;28;20037;-86
2022/08/15 02:19:29;;;;;;;10.85;8.43;;;;;;;;;;4965155;28;20725;-86
2022/08/15 02:21:55;;;;;;;13.25;8.02;;;;;;;;;;4991190;28;20116;-88
2022/08/15 02:24:24;;;;;;;11.15;7.43;;;;;;;;;;4962545;28;20130;-84
2022/08/15 02:26:52;;;;;;;11.35;7.90;;;;;;;;;;4977967;28;20050;-85
2022/08/15 02:29:22;;;;;;;11.50;8.30;;;;;;;;;;4973543;28;20569;-85
2022/08/15 02:31:47;;;;;;;12.15;8.75;;;;;;;;;;4942421;28;20417;-85
2022/08/15 02:34:13;;;;;;;9.65;7.82;;;;;;;;;;4969108;28;20035;-86
2022/08/15 02:36:39;;;;;;;11.98;8.15;;;;;;;;;;4951602;28;20034;-85
2022/08/15 02:39:09;;;;;;;11.70;8.68;;;;;;;;;;4972330;28;20125;-84
2022/08/15 02:41:38;;;;;;;10.48;8.30;;;;;;;;;;4961099;28;20042;-84
2022/08/15 02:44:04;;;;;;;10.82;8.60;;;;;;;;;;4957350;28;20042;-84
2022/08/15 02:46:30;;;;;;;11.88;8.45;;;;;;;;;;4966271;28;20061;-84
2022/08/15 02:48:58;;;;;;;11.65;8.60;;;;;;;;;;4949362;28;20500;-86
2022/08/15 02:51:24;;;;;;;12.90;8.45;;;;;;;;;;4960459;28;20034;-84
2022/08/15 02:53:51;;;;;;;9.60;8.07;;;;;;;;;;4939783;28;20062;-84
2022/08/15 02:56:19;;;;;;;10.93;8.20;;;;;;;;;;4950188;28;20034;-85
2022/08/15 02:58:45;;;;;;;10.85;7.97;;;;;;;;;;4958483;28;20045;-85
2022/08/15 03:01:10;;;;;;;9.65;7.78;;;;;;;;;;4949712;28;20094;-85
2022/08/15 03:03:38;;;;;;;12.63;8.32;;;;;;;;;;4943653;28;20092;-84
2022/08/15 03:06:07;;;;;;;9.80;7.97;;;;;;;;;;4941698;28;20138;-85
2022/08/15 03:08:33;;;;;;;12.88;8.48;;;;;;;;;;4961283;28;20046;-86
2022/08/15 03:10:59;;;;;;;11.52;8.38;;;;;;;;;;4971180;28;20537;-85
2022/08/15 03:13:25;;;;;;;11.35;8.38;;;;;;;;;;4947451;28;20057;-85
2022/08/15 03:15:53;;;;;;;10.73;8.52;;;;;;;;;;4963817;28;20038;-85
2022/08/15 03:18:20;;;;;;;11.70;8.10;;;;;;;;;;4975849;28;20030;-86
2022/08/15 03:20:47;;;;;;;11.18;8.73;;;;;;;;;;4954476;28;20398;-85
2022/08/15 03:23:16;;;;;;;11.48;8.77;;;;;;;;;;4954426;28;20027;-85
2022/08/15 03:25:52;;;;;;;11.70;8.30;;;;;;;;;;4972667;28;20473;-85
2022/08/15 03:28:19;;;;;;;12.68;8.65;;;;;;;;;;4959097;28;20478;-85
2022/08/15 03:30:45;;;;;;;12.80;9.02;;;;;;;;;;4954053;28;20062;-85
2022/08/15 03:33:11;;;;;;;11.45;8.88;;;;;;;;;;4943717;28;20069;-85
2022/08/15 03:35:40;;;;;;;12.52;9.10;;;;;;;;;;4971859;28;20031;-86
2022/08/15 03:38:05;;;;;;;14.05;8.93;;;;;;;;;;4957323;28;20065;-85
2022/08/15 03:40:31;;;;;;;13.23;8.82;;;;;;;;;;4972798;28;20081;-85
2022/08/15 03:43:01;;;;;;;14.10;9.45;;;;;;;;;;4960704;28;20090;-86
2022/08/15 03:45:27;;;;;;;12.48;9.35;;;;;;;;;;4945413;28;20512;-85
2022/08/15 03:47:53;;;;;;;11.02;9.32;;;;;;;;;;4974665;28;20039;-85
2022/08/15 03:50:20;;;;;;;11.68;9.30;;;;;;;;;;4959515;28;20042;-84
2022/08/15 03:52:53;;;;;;;13.20;9.40;;;;;;;;;;4940040;28;20061;-85
2022/08/15 03:55:19;;;;;;;11.75;8.95;;;;;;;;;;4970061;28;20034;-85
2022/08/15 03:57:45;;;;;;;12.23;9.18;;;;;;;;;;4959206;28;20367;-85
2022/08/15 04:00:13;;;;;;;13.32;10.02;;;;;;;;;;4972402;28;20097;-86
2022/08/15 04:02:38;;;;;;;14.80;9.45;;;;;;;;;;4975669;28;20036;-85
2022/08/15 04:05:04;;;;;;;10.65;8.65;;;;;;;;;;4960062;28;20472;-85
2022/08/15 04:07:32;;;;;;;13.18;9.48;;;;;;;;;;4947048;28;20093;-84
2022/08/15 04:09:58;;;;;;;12.50;9.27;;;;;;;;;;4969826;28;20129;-87
2022/08/15 04:12:34;;;;;;;12.68;9.50;;;;;;;;;;4951826;28;20038;-87
2022/08/15 04:15:00;;;;;;;11.38;9.70;;;;;;;;;;4979752;28;20125;-85
2022/08/15 04:17:25;;;;;;;13.48;9.95;;;;;;;;;;4962052;28;20114;-87
2022/08/15 04:19:51;;;;;;;17.40;10.27;;;;;;;;;;4945853;28;20038;-85
2022/08/15 04:22:18;;;;;;;11.30;9.50;;;;;;;;;;4976240;28;20125;-86
2022/08/15 04:24:43;;;;;;;13.38;10.15;;;;;;;;;;4957352;28;20039;-86
2022/08/15 04:27:08;;;;;;;13.45;10.07;;;;;;;;;;4972435;28;20042;-87
2022/08/15 04:29:43;;;;;;;11.80;9.68;;;;;;;;;;4958990;28;20126;-85
2022/08/15 04:32:11;;;;;;;13.68;9.75;;;;;;;;;;4972125;28;20101;-86
2022/08/15 04:34:41;;;;;;;14.73;11.13;;;;;;;;;;4938019;28;20049;-87
2022/08/15 04:37:07;;;;;;;14.25;10.60;;;;;;;;;;4959794;28;20029;-86
2022/08/15 04:39:32;;;;;;;13.65;10.50;;;;;;;;;;4977960;28;20459;-86
2022/08/15 04:42:01;;;;;;;13.65;11.02;;;;;;;;;;4963426;28;20035;-86
2022/08/15 04:44:26;;;;;;;13.38;10.60;;;;;;;;;;4945020;28;20474;-86
2022/08/15 04:46:52;;;;;;;15.95;11.05;;;;;;;;;;4971281;28;20046;-85
2022/08/15 04:49:17;;;;;;;12.73;10.52;;;;;;;;;;4953612;28;20064;-86
2022/08/15 04:51:44;;;;;;;13.25;10.48;;;;;;;;;;4949211;28;20090;-87
2022/08/15 04:54:09;;;;;;;12.63;10.07;;;;;;;;;;4944030;28;20035;-86
2022/08/15 04:56:35;;;;;;;14.02;10.73;;;;;;;;;;4958271;28;20044;-85
2022/08/15 04:59:00;;;;;;;13.23;10.27;;;;;;;;;;4978459;28;20031;-87
2022/08/15 05:01:26;;;;;;;14.48;10.85;;;;;;;;;;4957808;28;20030;-86
2022/08/15 05:03:51;;;;;;;14.05;10.68;;;;;;;;;;4959722;28;20047;-86
2022/08/15 05:06:18;;;;;;;14.07;10.23;;;;;;;;;;4958160;28;20114;-86
2022/08/15 05:08:44;;;;;;;13.23;10.48;;;;;;;;;;4960330;28;20542;-85
2022/08/15 05:11:12;;;;;;;15.23;10.95;;;;;;;;;;4958938;28;20110;-85
2022/08/15 05:13:38;;;;;;;13.13;10.75;;;;;;;;;;4968096;28;20035;-85
2022/08/15 05:16:07;;;;;;;12.50;10.27;;;;;;;;;;4975466;28;20041;-82
2022/08/15 05:18:36;;;;;;;11.15;9.65;;;;;;;;;;4967447;28;20121;-81
2022/08/15 05:21:02;;;;;;;12.63;10.10;;;;;;;;;;4960164;28;20045;-83
2022/08/15 05:23:28;;;;;;;13.75;10.10;;;;;;;;;;4947446;28;20034;-78
2022/08/15 05:25:57;;;;;;;15.07;10.43;;;;;;;;;;4948755;28;20043;-81
2022/08/15 05:28:23;;;;;;;14.23;9.25;;;;;;;;;;4949474;28;20116;-78
2022/08/15 05:30:49;;;;;;;12.85;9.85;;;;;;;;;;4946832;28;20034;-79
2022/08/15 05:33:18;;;;;;;14.18;9.38;;;;;;;;;;4965683;28;20462;-79
2022/08/15 05:35:46;;;;;;;12.50;9.65;;;;;;;;;;4970452;28;20046;-78
2022/08/15 05:38:17;;;;;;;14.13;9.52;;;;;;;;;;4975872;28;20062;-78
2022/08/15 05:40:58;;;;;;;12.75;10.15;;;;;;;;;;4973973;28;20047;-79
2022/08/15 05:43:33;;;;;;;12.68;9.48;;;;;;;;;;4974762;28;20046;-78
2022/08/15 05:46:22;;;;;;;13.65;9.68;;;;;;;;;;4945007;28;20083;-79
2022/08/15 05:49:10;;;;;;;14.25;9.25;;;;;;;;;;4970881;28;20046;-78
2022/08/15 05:51:44;;;;;;;11.77;9.07;;;;;;;;;;4970269;28;20030;-79
2022/08/15 05:54:22;;;;;;;13.77;9.23;;;;;;;;;;4966224;28;20117;-79
2022/08/15 05:56:47;;;;;;;;;;;;;;;;;;4974736;28;20043;-79
2022/08/15 05:59:15;;;;;;;10.73;7.83;;;;;;;;;;4977058;28;19976;-79
2022/08/15 06:01:51;;;;;;;11.55;7.72;;;;;;;;;;4974025;28;20035;-80
2022/08/15 06:04:43;;;;;;;10.75;7.57;;;;;;;;;;4962750;28;20037;-79
2022/08/15 06:07:16;;;;;;;9.57;7.38;;;;;;;;;;4947790;28;20042;-79
2022/08/15 06:09:49;;;;;;;10.27;7.97;;;;;;;;;;4974575;28;20521;-79
2022/08/15 06:12:22;;;;;;;10.15;8.00;;;;;;;;;;4945121;28;20041;-79
2022/08/15 06:14:51;;;;;;;10.25;7.20;;;;;;;;;;4965364;28;20112;-79
2022/08/15 06:17:43;;;;;;;10.50;7.50;;;;;;;;;;4951957;28;20049;-79
2022/08/15 06:20:12;;;;;;;8.88;7.07;;;;;;;;;;4969904;28;20038;-79
2022/08/15 06:22:50;;;;;;;14.88;8.02;;;;;;;;;;4958802;28;20486;-80
2022/08/15 06:25:39;;;;;;;11.20;6.50;;;;;;;;;;4938809;28;20312;-79
2022/08/15 06:28:19;;;;;;;12.90;7.45;;;;;;;;;;4976949;28;20037;-79
2022/08/15 06:30:56;;;;;;;9.60;7.00;;;;;;;;;;4978404;28;20069;-80
2022/08/15 06:33:35;;;;;;;9.00;7.25;;;;;;;;;;4994227;28;20038;-80
2022/08/15 06:36:06;;;;;;;9.50;7.05;;;;;;;;;;4938844;28;20032;-80
2022/08/15 06:38:48;;;;;;;9.90;7.75;;;;;;;;;;4975214;28;20485;-80
2022/08/15 06:41:43;;;;;;;10.88;7.15;;;;;;;;;;4986719;28;20035;-81
2022/08/15 06:44:10;;;;;;;11.60;7.90;;;;;;;;;;4976738;28;20079;-80
2022/08/15 06:46:38;;;;;;;9.65;7.65;;;;;;;;;;4961106;28;20181;-80
2022/08/15 06:49:07;;;;;;;;;;;;;;;;;;4967781;28;20498;-79
2022/08/15 06:51:34;;;;;;;10.50;7.35;;;;;;;;;;4975334;28;20432;-79
2022/08/15 06:53:59;;;;;;;10.93;8.27;;;;;;;;;;4944072;28;20111;-80
2022/08/15 06:56:34;;;;;;;12.23;8.57;;;;;;;;;;4950498;28;20457;-79
2022/08/15 06:59:28;;;;;;;9.40;7.15;;;;;;;;;;4962328;28;20511;-80
2022/08/15 07:02:09;;;;;;;10.45;7.78;;;;;;;;;;4986766;28;20034;-80
2022/08/15 07:04:52;;;;;;;9.80;6.72;;;;;;;;;;4949846;28;20039;-80
2022/08/15 07:07:39;;;;;;;9.25;6.75;;;;;;;;;;4948976;28;20035;-81
2022/08/15 07:10:04;;;;;;;9.32;7.32;;;;;;;;;;4929975;28;20058;-81
2022/08/15 07:12:37;;;;;;;11.18;7.68;;;;;;;;;;4994859;28;20038;-81
2022/08/15 07:15:05;;;;;;;9.95;7.22;;;;;;;;;;4956594;28;20105;-80
2022/08/15 07:17:46;;;;;;;9.65;6.70;;;;;;;;;;4991788;28;20034;-80
2022/08/15 07:20:12;;;;;;;8.93;6.55;;;;;;;;;;4977061;28;20513;-80
2022/08/15 07:22:39;;;;;;;9.95;6.43;;;;;;;;;;4956051;28;20038;-81
2022/08/15 07:25:13;;;;;;;8.05;6.15;;;;;;;;;;4967807;28;20038;-80
2022/08/15 07:27:38;;;;;;;8.18;6.00;;;;;;;;;;4939998;28;20097;-80
2022/08/15 07:30:38;;;;;;;9.30;6.25;;;;;;;;;;4988124;28;20490;-80
2022/08/15 07:33:03;;;;;;;7.38;5.85;;;;;;;;;;4957187;28;20046;-81
2022/08/15 07:35:33;;;;;;;7.38;5.57;;;;;;;;;;4943459;28;20811;-81
2022/08/15 07:38:05;;;;;;;6.88;5.65;;;;;;;;;;4994067;28;20084;-81
2022/08/15 07:40:34;;;;;;;8.02;5.38;;;;;;;;;;4956766;28;20054;-80
2022/08/15 07:43:01;;;;;;;7.78;5.63;;;;;;;;;;4969186;28;20042;-79
2022/08/15 07:45:34;;;;;;;7.38;5.68;;;;;;;;;;4948265;28;20038;-81
2022/08/15 07:48:05;;;;;;;6.93;5.10;;;;;;;;;;4960664;28;20046;-80
2022/08/15 07:50:38;;;;;;;7.20;5.30;;;;;;;;;;4979005;28;20058;-81
2022/08/15 07:53:16;;;;;;;7.07;5.18;;;;;;;;;;4974452;28;20398;-81
2022/08/15 07:56:04;;;;;;;6.85;4.95;;;;;;;;;;4960936;28;20405;-80
2022/08/15 07:58:30;;;;;;;7.07;5.13;;;;;;;;;;4974272;28;20815;-82
2022/08/15 08:01:25;;;;;;;6.63;5.20;;;;;;;;;;4959486;28;20034;-82
2022/08/15 08:04:15;;;;;;;5.75;4.60;;;;;;;;;;4973551;28;20678;-81
2022/08/15 08:07:12;;;;;;;7.07;4.60;;;;;;;;;;4949883;28;20058;-80
2022/08/15 08:09:54;;;;;;;7.47;5.07;;;;;;;;;;4967344;28;20045;-83
2022/08/15 08:12:37;;;;;;;6.38;4.60;;;;;;;;;;4943664;28;20037;-83
2022/08/15 08:15:21;;;;;;;6.93;5.15;;;;;;;;;;4945912;28;20042;-83
2022/08/15 08:17:55;;;;;;;7.43;5.03;;;;;;;;;;4972711;28;20065;-82
2022/08/15 08:20:34;;;;;;;7.03;5.35;;;;;;;;;;4992678;28;20038;-83
2022/08/15 08:23:27;;;;;;;9.60;5.20;;;;;;;;;;4925190;28;20454;-83
2022/08/15 08:26:16;;;;;;;7.47;5.35;;;;;;;;;;4951803;28;20125;-83
2022/08/15 08:28:51;;;;;;;6.68;4.80;;;;;;;;;;4961473;28;20046;-82
2022/08/15 08:31:26;;;;;;;6.30;4.72;;;;;;;;;;4973991;28;20032;-83
2022/08/15 08:33:58;;;;;;;6.63;4.93;;;;;;;;;;4960304;28;20043;-83
2022/08/15 08:36:30;;;;;;;5.68;4.38;;;;;;;;;;4990062;28;20378;-85
2022/08/15 08:39:18;;;;;;;7.07;4.57;;;;;;;;;;4934484;28;20043;-82
2022/08/15 08:41:46;;;;;;;5.72;4.18;;;;;;;;;;4991599;28;20041;-82
2022/08/15 08:44:37;;;;;;;8.55;4.85;;;;;;;;;;4989839;28;20069;-83
2022/08/15 08:47:36;;;;;;;7.50;4.80;;;;;;;;;;4980090;28;20042;-83
2022/08/15 08:50:25;;;;;;;5.20;4.00;;;;;;;;;;4975739;28;20568;-83
2022/08/15 08:52:54;;;;;;;7.25;4.40;;;;;;;;;;4991905;28;20042;-80
2022/08/15 08:55:29;;;;;;;6.50;4.35;;;;;;;;;;4972638;28;20042;-83
2022/08/15 08:58:06;;;;;;;5.65;4.28;;;;;;;;;;4975969;28;20038;-82
2022/08/15 09:00:39;;;;;;;7.50;3.95;;;;;;;;;;4981804;28;20056;-82
2022/08/15 09:03:32;;;;;;;5.30;4.20;;;;;;;;;;4958802;28;20485;-81
2022/08/15 09:06:01;;;;;;;6.93;4.40;;;;;;;;;;4967710;28;20044;-81
2022/08/15 09:08:41;;;;;;;5.63;3.97;;;;;;;;;;4948931;28;20064;-82
2022/08/15 09:11:17;;;;;;;6.65;4.32;;;;;;;;;;4979056;28;20038;-81
2022/08/15 09:13:44;;;;;;;5.70;4.20;;;;;;;;;;4966016;28;20085;-82
2022/08/15 09:16:23;;;;;;;6.88;3.90;;;;;;;;;;4979841;28;20299;-81
2022/08/15 09:19:02;;;;;;;6.22;4.05;;;;;;;;;;4964300;28;20131;-81
2022/08/15 09:21:27;;;;;;;4.53;3.83;;;;;;;;;;4962089;28;20100;-82
2022/08/15 09:23:54;;;;;;;7.00;4.03;;;;;;;;;;4967909;28;20445;-82
2022/08/15 09:26:28;;;;;;;;;;;;;;;;;;4967169;28;20149;-82
2022/08/15 09:29:03;;;;;;;4.95;3.70;;;;;;;;;;4976314;28;19961;-82
2022/08/15 09:31:32;;;;;;;5.40;4.15;;;;;;;;;;4969436;28;20134;-82
2022/08/15 09:34:12;;;;;;;5.18;4.10;;;;;;;;;;4965514;28;20042;-82
2022/08/15 09:36:55;;;;;;;4.43;3.55;;;;;;;;;;4985482;28;20034;-83
2022/08/15 09:39:35;;;;;;;5.20;3.65;;;;;;;;;;4965016;28;20042;-82
2022/08/15 09:42:23;;;;;;;6.15;3.97;;;;;;;;;;4970516;28;20066;-83
2022/08/15 09:45:07;;;;;;;5.00;3.67;;;;;;;;;;4964910;28;20046;-84
2022/08/15 09:47:46;;;;;;;10.98;3.65;;;;;;;;;;4996412;28;20034;-81
2022/08/15 09:50:28;;;;;;;5.25;3.70;;;;;;;;;;4962409;28;20048;-82
2022/08/15 09:53:28;;;;;;;5.47;3.80;;;;;;;;;;4976141;28;20061;-82
2022/08/15 09:56:02;;;;;;;7.00;4.72;;;;;;;;;;4966571;28;20433;-82
2022/08/15 09:58:31;;;;;;;5.82;4.90;;;;;;;;;;4963083;28;20042;-81
2022/08/15 10:01:15;;;;;;;6.50;4.78;;;;;;;;;;4958817;28;20482;-82
2022/08/15 10:03:43;;;;;;;5.72;4.13;;;;;;;;;;4966012;28;20118;-84
2022/08/15 10:06:19;;;;;;;6.25;4.20;;;;;;;;;;4975126;28;20038;-82
2022/08/15 10:08:50;;;;;;;5.53;4.20;;;;;;;;;;4984660;28;20605;-82
2022/08/15 10:11:16;;;;;;;5.50;4.50;;;;;;;;;;4986648;28;20072;-82
2022/08/15 10:13:45;;;;;;;5.70;4.38;;;;;;;;;;4963503;28;20045;-82
2022/08/15 10:16:35;;;;;;;7.20;4.30;;;;;;;;;;4949560;28;20061;-82
2022/08/15 10:19:04;;;;;;;4.70;3.75;;;;;;;;;;4985375;28;20053;-83
2022/08/15 10:21:47;;;;;;;5.25;3.63;;;;;;;;;;4972236;28;20058;-83
2022/08/15 10:24:30;;;;;;;4.57;3.58;;;;;;;;;;4964839;28;20030;-82
2022/08/15 10:27:20;;;;;;;5.32;3.95;;;;;;;;;;4958529;28;20052;-82
2022/08/15 10:29:50;;;;;;;4.50;3.70;;;;;;;;;;4973932;28;20979;-82
2022/08/15 10:32:30;;;;;;;4.78;3.53;;;;;;;;;;4980239;28;20918;-81
2022/08/15 10:35:10;;;;;;;6.30;4.30;;;;;;;;;;4974310;28;20555;-83
2022/08/15 10:37:55;;;;;;;6.90;4.07;;;;;;;;;;4971580;28;20031;-81
2022/08/15 10:40:32;;;;;;;6.15;4.63;;;;;;;;;;4963508;28;20130;-81
2022/08/15 10:43:19;;;;;;;5.57;4.20;;;;;;;;;;4970902;28;20098;-81
2022/08/15 10:46:05;;;;;;;5.82;4.40;;;;;;;;;;4974888;28;20043;-81
2022/08/15 10:49:15;;;;;;;5.70;4.20;;;;;;;;;;4975525;28;20042;-82
2022/08/15 10:51:40;;;;;;;5.65;4.28;;;;;;;;;;4992406;28;20032;-82
2022/08/15 10:54:22;;;;;;;6.77;4.67;;;;;;;;;;4975695;28;20366;-82
2022/08/15 10:56:54;;;;;;;5.50;4.50;;;;;;;;;;4990705;28;20096;-81
2022/08/15 10:59:22;;;;;;;6.15;4.75;;;;;;;;;;4991222;28;20405;-83
2022/08/15 11:01:51;;;;;;;5.65;4.70;;;;;;;;;;4979269;28;20046;-82
2022/08/15 11:04:35;;;;;;;6.68;4.97;;;;;;;;;;4962452;28;20387;-83
2022/08/15 11:07:03;;;;;;;6.65;5.35;;;;;;;;;;4959560;28;20387;-81
2022/08/15 11:09:28;;;;;;;7.82;4.93;;;;;;;;;;4961805;28;20051;-81
2022/08/15 11:12:05;;;;;;;5.82;4.70;;;;;;;;;;4959579;28;20124;-81
2022/08/15 11:14:38;;;;;;;6.18;4.88;;;;;;;;;;4952260;28;20057;-81
2022/08/15 11:17:11;;;;;;;6.25;4.35;;;;;;;;;;4968100;28;20486;-81
2022/08/15 11:19:38;;;;;;;7.05;5.60;;;;;;;;;;4956820;28;20845;-81
2022/08/15 11:22:16;;;;;;;6.35;5.28;;;;;;;;;;4979915;28;20038;-81
2022/08/15 11:24:43;;;;;;;5.95;4.80;;;;;;;;;;4974149;28;20401;-81
2022/08/15 11:27:14;;;;;;;5.93;5.30;;;;;;;;;;4954697;28;20047;-81
2022/08/15 11:29:39;;;;;;;6.13;4.97;;;;;;;;;;4954930;28;20119;-82
2022/08/15 11:32:05;;;;;;;5.93;4.93;;;;;;;;;;4949826;28;20072;-84
2022/08/15 11:34:33;;;;;;;6.88;4.75;;;;;;;;;;4946009;28;20038;-82
2022/08/15 11:37:11;;;;;;;6.07;5.22;;;;;;;;;;4951460;28;20039;-81
2022/08/15 11:39:42;;;;;;;6.40;5.10;;;;;;;;;;4933837;28;20059;-83
2022/08/15 11:42:13;;;;;;;6.10;4.97;;;;;;;;;;4967256;28;20228;-81
2022/08/15 11:44:44;;;;;;;6.75;5.20;;;;;;;;;;4960207;28;20065;-82
2022/08/15 11:47:15;;;;;;;6.47;4.80;;;;;;;;;;4974297;28;20034;-83
2022/08/15 11:50:07;;;;;;;5.70;4.57;;;;;;;;;;4960311;28;20027;-81
2022/08/15 11:52:36;;;;;;;7.57;4.60;;;;;;;;;;4932789;28;20368;-83
2022/08/15 11:55:32;;;;;;;6.70;4.65;;;;;;;;;;4963017;28;20039;-82
2022/08/15 11:58:01;;;;;;;5.65;4.45;;;;;;;;;;4954735;28;20504;-82
2022/08/15 12:00:44;;;;;;;6.43;4.43;;;;;;;;;;4943748;28;20122;-82
2022/08/15 12:03:23;;;;;;;6.47;4.65;;;;;;;;;;4990371;28;20034;-84
2022/08/15 12:05:51;;;;;;;6.63;4.40;;;;;;;;;;4959067;28;20502;-82
2022/08/15 12:08:27;;;;;;;5.72;4.63;;;;;;;;;;4953833;28;20026;-81
2022/08/15 12:11:06;;;;;;;5.80;4.87;;;;;;;;;;4933926;28;20040;-82
2022/08/15 12:13:32;;;;;;;6.05;4.75;;;;;;;;;;4957551;28;20638;-83
2022/08/15 12:15:58;;;;;;;7.40;4.93;;;;;;;;;;4950924;28;20042;-81
2022/08/15 12:18:24;;;;;;;7.50;4.72;;;;;;;;;;4946666;28;20435;-83
2022/08/15 12:20:55;;;;;;;7.22;5.20;;;;;;;;;;4961472;28;20045;-81
2022/08/15 12:23:30;;;;;;;6.40;4.85;;;;;;;;;;4966904;28;20039;-83
2022/08/15 12:26:19;;;;;;;6.65;5.32;;;;;;;;;;4970715;28;20323;-82
2022/08/15 12:28:46;;;;;;;6.32;4.68;;;;;;;;;;4875333;29;20113;-81
2022/08/15 12:31:16;;;;;;;11.73;5.07;;;;;;;;;;4879748;29;20123;-83
2022/08/15 12:33:43;;;;;;;6.50;4.55;;;;;;;;;;4863081;29;20590;-80
2022/08/15 12:36:08;;;;;;;6.28;4.70;;;;;;;;;;4882575;29;20044;-81
2022/08/15 12:38:35;;;;;;;5.35;4.65;;;;;;;;;;4879232;29;20087;-82
2022/08/15 12:41:01;;;;;;;7.28;4.72;;;;;;;;;;4886570;29;20807;-86
2022/08/15 12:43:27;;;;;;;7.57;5.00;;;;;;;;;;4905760;29;20084;-83
2022/08/15 12:45:53;;;;;;;5.88;4.75;;;;;;;;;;4889218;29;20271;-82
2022/08/15 12:48:22;;;;;;;5.47;4.53;;;;;;;;;;4890473;29;20123;-82
2022/08/15 12:51:09;;;;;;;7.10;4.60;;;;;;;;;;4905286;29;20064;-82
2022/08/15 12:53:38;;;;;;;6.05;4.57;;;;;;;;;;4844477;29;20498;-82
2022/08/15 12:56:04;;;;;;;5.78;4.65;;;;;;;;;;4853840;29;20537;-81
2022/08/15 12:58:29;;;;;;;6.70;4.60;;;;;;;;;;4835054;29;20046;-80
2022/08/15 13:00:57;;;;;;;7.43;4.28;;;;;;;;;;4836491;29;20215;-83
2022/08/15 13:03:28;;;;;;;7.80;4.47;;;;;;;;;;4835619;29;20064;-83
2022/08/15 13:06:01;;;;;;;5.38;4.20;;;;;;;;;;4868757;29;20123;-83
2022/08/15 13:08:27;;;;;;;5.20;3.83;;;;;;;;;;4904759;29;20043;-81
2022/08/15 13:10:53;;;;;;;5.65;4.03;;;;;;;;;;4898638;29;20051;-81
2022/08/15 13:13:19;;;;;;;7.40;4.00;;;;;;;;;;4897305;29;20047;-82
2022/08/15 13:15:44;;;;;;;6.60;3.80;;;;;;;;;;4881775;29;20040;-82
2022/08/15 13:18:15;;;;;;;4.55;3.40;;;;;;;;;;4893089;29;20127;-81
2022/08/15 13:23:40;;;;;;;6.10;4.20;;;;;;;;;;4897466;29;20075;-82
2022/08/15 13:26:16;;;;;;;5.65;3.90;;;;;;;;;;4888279;29;20059;-81
2022/08/15 13:28:46;;;;;;;7.28;4.10;;;;;;;;;;4890909;29;20076;-82
2022/08/15 13:31:13;;;;;;;4.43;3.40;;;;;;;;;;4937103;28;20047;-81
2022/08/15 13:33:39;;;;;;;5.20;3.60;;;;;;;;;;4932493;28;20036;-81
2022/08/15 13:36:09;;;;;;;4.80;3.50;;;;;;;;;;4942481;28;20567;-81
2022/08/15 13:38:41;;;;;;;5.38;4.05;;;;;;;;;;4951586;28;20051;-82
2022/08/15 13:41:07;;;;;;;6.72;3.70;;;;;;;;;;4963818;28;20641;-81
2022/08/15 13:43:33;;;;;;;5.63;3.50;;;;;;;;;;4935543;28;20399;-82
2022/08/15 13:45:58;;;;;;;5.43;3.60;;;;;;;;;;4941488;28;20126;-82
2022/08/15 13:48:32;;;;;;;6.47;3.90;;;;;;;;;;4939328;28;20031;-81
2022/08/15 13:50:59;;;;;;;4.25;3.10;;;;;;;;;;4941590;28;20508;-81
2022/08/15 13:53:27;;;;;;;7.43;3.20;;;;;;;;;;4939552;28;20094;-83
2022/08/15 13:55:53;;;;;;;6.32;3.38;;;;;;;;;;4953382;28;20507;-83
2022/08/15 13:58:18;;;;;;;4.32;3.20;;;;;;;;;;4946982;28;20038;-82
2022/08/15 14:00:44;;;;;;;5.18;2.78;;;;;;;;;;4953530;28;20043;-83
2022/08/15 14:03:09;;;;;;;4.93;3.10;;;;;;;;;;4941244;28;20038;-83
2022/08/15 14:05:34;;;;;;;5.00;3.35;;;;;;;;;;4953600;28;20066;-83
2022/08/15 14:08:00;;;;;;;4.40;3.28;;;;;;;;;;4955890;28;20030;-83
2022/08/15 14:10:27;;;;;;;5.93;3.10;;;;;;;;;;4935342;28;20095;-84
2022/08/15 14:12:52;;;;;;;5.03;3.20;;;;;;;;;;4918201;28;20123;-83
2022/08/15 14:15:18;;;;;;;5.68;3.10;;;;;;;;;;4942959;28;20401;-83
2022/08/15 14:17:45;;;;;;;4.53;3.20;;;;;;;;;;4927205;28;20410;-82
2022/08/15 14:20:14;;;;;;;7.35;3.20;;;;;;;;;;4921735;28;20043;-83
2022/08/15 14:22:39;;;;;;;5.75;3.30;;;;;;;;;;4930411;29;20066;-82
2022/08/15 14:25:05;;;;;;;5.03;3.40;;;;;;;;;;4938261;28;20055;-83
2022/08/15 14:27:35;;;;;;;4.85;3.30;;;;;;;;;;4956677;28;20113;-83
2022/08/15 14:30:01;;;;;;;5.13;3.67;;;;;;;;;;4940013;28;20557;-83
2022/08/15 14:32:26;;;;;;;5.10;3.40;;;;;;;;;;4938839;28;20042;-83
2022/08/15 14:34:52;;;;;;;5.53;3.67;;;;;;;;;;4961891;28;20043;-83
2022/08/15 14:37:20;;;;;;;6.03;3.65;;;;;;;;;;4965958;28;20055;-86
2022/08/15 14:39:47;;;;;;;4.50;3.28;;;;;;;;;;4948740;28;20042;-86
2022/08/15 14:42:17;;;;;;;4.65;3.17;;;;;;;;;;4984453;28;20039;-85
2022/08/15 14:44:43;;;;;;;4.97;3.42;;;;;;;;;;4975283;28;20036;-85
2022/08/15 14:47:13;;;;;;;5.17;3.20;;;;;;;;;;4944297;28;20110;-83
2022/08/15 14:49:44;;;;;;;6.65;3.58;;;;;;;;;;4943642;28;20287;-83
2022/08/15 14:52:09;;;;;;;6.00;3.40;;;;;;;;;;4970496;28;20046;-84
2022/08/15 14:54:36;;;;;;;5.32;3.40;;;;;;;;;;4958685;28;20035;-86
2022/08/15 14:57:03;;;;;;;5.43;3.35;;;;;;;;;;4966261;28;20149;-83
2022/08/15 14:59:30;;;;;;;4.20;3.05;;;;;;;;;;4958820;28;20039;-85
2022/08/15 15:01:55;;;;;;;5.10;3.40;;;;;;;;;;4958654;28;20038;-85
2022/08/15 15:04:20;;;;;;;6.65;3.63;;;;;;;;;;4947504;28;20373;-82
2022/08/15 15:06:47;;;;;;;4.90;3.45;;;;;;;;;;4956178;28;20033;-84